Arches Natl Park, Utah
Current Conditions -  °F | °C
As of 2:53 PM on Friday 24 Oct 2014 (Local Time) from KCNY Reporting Station
Clear Clear  
Wind Chill: 76°   Ceiling: Unl
Heat Index: 76°   Visibility: 10mi
Dew Point: 33°   Wind: 0mph
Humidity: 21%   Direction: NA
Pressure: 30.18"   Gusts: NA
Location:  38.7°N, 109.75°W
Report Text: KCNY 242053Z AUTO 00000KT 10SM CLR 24/01 A3018 RMK AO2 SLP183 T02440006 58022
Loading
Personal Weather Stations






























Interactive Weather Map
Tropical Storm Tracking
New forecast layout! Learn more

10-Day Weather Forecast

Advertisements
Track Severe Weather on mobile